Time;durP1;ratioP1;P1;durP2;ratioP2;P2;SDS_P1;SDS_P2;PMS_P1;PMS_P2;Temp;Humidity;BMP_temperature;BMP_pressure;BME280_temperature;BME280_humidity;BME280_pressure;Samples;Min_cycle;Max_cycle;Signal;HPM_P1;HPM_P2
2022/11/27 00:02:01;;;;;;;42.27;20.07;;;8.00;1.00;;;;;;6229555;28;20469;-54
2022/11/27 00:05:04;;;;;;;29.47;17.83;;;8.00;1.00;;;;;;6233115;28;20242;-54
2022/11/27 00:08:07;;;;;;;34.30;19.03;;;8.00;1.00;;;;;;6240714;28;20487;-55
2022/11/27 00:11:11;;;;;;;28.60;17.77;;;8.00;1.00;;;;;;6250713;28;20867;-54
2022/11/27 00:14:16;;;;;;;32.97;18.03;;;8.00;1.00;;;;;;6226048;28;20238;-57
2022/11/27 00:17:20;;;;;;;28.37;16.63;;;8.00;1.00;;;;;;6209408;28;20243;-55
2022/11/27 00:20:23;;;;;;;33.50;18.20;;;8.00;1.00;;;;;;6203078;28;20341;-53
2022/11/27 00:23:32;;;;;;;27.77;15.53;;;7.90;1.00;;;;;;6210017;28;20317;-54
2022/11/27 00:26:35;;;;;;;37.17;18.50;;;8.00;1.00;;;;;;6209244;28;20243;-53
2022/11/27 00:29:40;;;;;;;28.27;16.63;;;7.90;1.00;;;;;;6209648;28;20321;-54
2022/11/27 00:32:44;;;;;;;27.30;16.50;;;7.90;1.00;;;;;;6212667;28;20234;-54
2022/11/27 00:35:47;;;;;;;33.57;19.10;;;7.90;1.00;;;;;;6236844;28;20239;-53
2022/11/27 00:38:51;;;;;;;37.10;17.87;;;7.90;1.00;;;;;;6237665;28;20230;-53
2022/11/27 00:41:53;;;;;;;25.30;16.77;;;7.80;1.00;;;;;;6238759;28;20470;-54
2022/11/27 00:44:56;;;;;;;37.03;17.70;;;7.80;1.00;;;;;;6237691;28;20245;-55
2022/11/27 00:48:01;;;;;;;26.13;16.70;;;7.80;1.00;;;;;;6237341;28;20322;-54
2022/11/27 00:51:06;;;;;;;36.40;18.33;;;7.90;1.00;;;;;;6217180;28;20247;-53
2022/11/27 00:54:09;;;;;;;30.90;16.97;;;7.90;1.00;;;;;;6212398;28;20250;-54
2022/11/27 00:57:12;;;;;;;35.83;17.27;;;7.90;1.00;;;;;;6212480;28;20267;-54
2022/11/27 01:00:16;;;;;;;19.20;14.70;;;7.80;1.00;;;;;;6213019;28;20239;-53
2022/11/27 01:03:20;;;;;;;27.33;16.63;;;7.80;1.00;;;;;;6236337;28;20430;-55
2022/11/27 01:06:24;;;;;;;27.20;16.67;;;7.80;1.00;;;;;;6237133;28;20672;-55
2022/11/27 01:09:27;;;;;;;33.10;17.17;;;7.90;1.00;;;;;;6223020;28;20235;-54
2022/11/27 01:12:30;;;;;;;29.77;16.90;;;7.80;1.00;;;;;;6241559;28;20493;-54
2022/11/27 01:15:33;;;;;;;22.53;15.43;;;7.80;1.00;;;;;;6216357;28;20246;-54
2022/11/27 01:18:39;;;;;;;31.40;16.60;;;7.90;1.00;;;;;;6201652;28;20264;-54
2022/11/27 01:21:42;;;;;;;31.60;16.30;;;7.80;1.00;;;;;;6188598;28;20235;-52
2022/11/27 01:24:45;;;;;;;30.40;16.03;;;7.80;1.00;;;;;;6184366;28;20232;-54
2022/11/27 01:27:48;;;;;;;26.33;17.33;;;7.80;1.00;;;;;;6187411;28;20255;-54
2022/11/27 01:30:51;;;;;;;24.67;15.43;;;7.80;1.00;;;;;;6188063;28;20771;-54
2022/11/27 01:33:58;;;;;;;24.70;15.97;;;7.80;1.00;;;;;;6199024;28;20239;-54
2022/11/27 01:37:01;;;;;;;22.10;15.57;;;7.70;1.00;;;;;;6206363;28;20544;-52
2022/11/27 01:40:05;;;;;;;17.07;14.43;;;7.80;1.00;;;;;;6211257;28;20244;-52
2022/11/27 01:43:14;;;;;;;17.73;13.97;;;8.00;1.00;;;;;;6209144;28;20729;-53
2022/11/27 01:46:31;;;;;;;21.87;15.43;;;7.80;1.00;;;;;;6187736;28;20247;-53
2022/11/27 01:49:38;;;;;;;19.33;14.13;;;7.80;1.00;;;;;;6193844;28;20312;-55
2022/11/27 01:52:45;;;;;;;19.00;14.70;;;7.80;1.00;;;;;;6205767;28;20254;-54
2022/11/27 01:55:53;;;;;;;16.60;12.80;;;7.80;1.00;;;;;;6212259;28;20726;-54
2022/11/27 01:58:58;;;;;;;15.07;12.63;;;7.80;1.00;;;;;;6204131;28;20254;-54
2022/11/27 02:02:03;;;;;;;14.30;12.70;;;7.80;1.00;;;;;;6187116;28;20631;-55
2022/11/27 02:05:08;;;;;;;19.63;13.70;;;7.80;1.00;;;;;;6204945;28;20239;-54
2022/11/27 02:08:15;;;;;;;18.67;13.33;;;7.70;1.00;;;;;;6213483;28;20243;-53
2022/11/27 02:11:27;;;;;;;20.03;14.63;;;7.70;1.00;;;;;;6214236;28;20235;-54
2022/11/27 02:14:38;;;;;;;22.73;16.37;;;7.70;1.00;;;;;;6211707;28;20232;-54
2022/11/27 02:17:49;;;;;;;21.13;15.17;;;7.70;1.00;;;;;;6188676;28;20251;-54
2022/11/27 02:21:01;;;;;;;22.80;16.37;;;7.70;1.00;;;;;;6189816;28;20609;-53
2022/11/27 02:24:31;;;;;;;25.77;17.27;;;7.70;1.00;;;;;;6202984;28;20235;-55
2022/11/27 02:27:52;;;;;;;19.43;14.63;;;7.70;1.00;;;;;;6186173;28;20647;-53
2022/11/27 02:31:02;;;;;;;18.23;14.23;;;7.60;1.00;;;;;;6200790;28;20236;-53
2022/11/27 02:34:14;;;;;;;21.27;15.30;;;7.60;1.00;;;;;;6207459;28;20236;-53
2022/11/27 02:37:24;;;;;;;25.73;16.53;;;7.50;1.00;;;;;;6217118;28;20760;-53
2022/11/27 02:40:31;;;;;;;26.00;15.50;;;7.50;1.00;;;;;;6238338;28;20241;-54
2022/11/27 02:43:38;;;;;;;20.73;14.23;;;7.40;1.00;;;;;;6232429;28;20231;-53
2022/11/27 02:46:43;;;;;;;27.93;16.13;;;7.50;1.00;;;;;;6233967;28;20254;-56
2022/11/27 02:49:49;;;;;;;29.07;14.87;;;7.40;1.00;;;;;;6229305;28;20246;-53
2022/11/27 02:52:57;;;;;;;20.27;14.90;;;7.40;1.00;;;;;;6210823;28;20239;-55
2022/11/27 02:56:03;;;;;;;28.63;16.57;;;7.40;1.00;;;;;;6209822;28;20616;-54
2022/11/27 02:59:11;;;;;;;26.83;17.10;;;7.30;1.00;;;;;;6210538;28;20254;-54
2022/11/27 03:02:21;;;;;;;26.60;15.47;;;7.30;1.00;;;;;;6226997;28;20326;-54
2022/11/27 03:05:28;;;;;;;25.40;17.00;;;7.30;1.00;;;;;;6218402;28;20246;-54
2022/11/27 03:08:35;;;;;;;35.27;18.13;;;7.30;1.00;;;;;;6224025;28;20254;-53
2022/11/27 03:11:38;;;;;;;26.37;16.67;;;7.30;1.00;;;;;;6227716;28;20228;-54
2022/11/27 03:14:43;;;;;;;24.33;16.90;;;7.30;1.00;;;;;;6210312;28;20235;-53
2022/11/27 03:17:54;;;;;;;23.53;16.23;;;7.30;1.00;;;;;;6187041;28;20258;-54
2022/11/27 03:21:05;;;;;;;27.87;16.60;;;7.30;1.00;;;;;;6186001;28;20248;-53
2022/11/27 03:24:09;;;;;;;26.40;16.57;;;7.20;1.00;;;;;;6206685;28;20239;-52
2022/11/27 03:27:18;;;;;;;25.00;15.20;;;7.30;1.00;;;;;;6206011;28;20254;-54
2022/11/27 03:30:21;;;;;;;22.90;15.63;;;7.30;1.00;;;;;;6233870;28;20242;-54
2022/11/27 03:33:25;;;;;;;22.20;15.90;;;7.20;1.00;;;;;;6232771;28;20289;-53
2022/11/27 03:36:28;;;;;;;24.27;15.33;;;7.20;1.00;;;;;;6230667;28;20245;-54
2022/11/27 03:39:32;;;;;;;21.30;15.53;;;7.20;1.00;;;;;;6239628;28;20731;-54
2022/11/27 03:42:48;;;;;;;25.33;15.93;;;7.20;1.00;;;;;;6240082;28;20234;-53
2022/11/27 03:45:58;;;;;;;25.33;16.20;;;7.10;1.00;;;;;;6225446;28;20235;-53
2022/11/27 03:49:12;;;;;;;25.97;16.70;;;7.00;1.00;;;;;;6210006;28;20242;-53
2022/11/27 03:52:22;;;;;;;22.33;14.17;;;7.00;1.00;;;;;;6210744;28;20260;-53
2022/11/27 03:55:31;;;;;;;21.47;15.00;;;7.00;1.00;;;;;;6210213;28;20671;-54
2022/11/27 03:58:38;;;;;;;25.53;16.07;;;7.00;1.00;;;;;;6191515;28;20695;-53
2022/11/27 04:01:42;;;;;;;18.77;16.67;;;6.90;1.00;;;;;;6195522;28;20230;-53
2022/11/27 04:04:46;;;;;;;21.47;16.20;;;6.90;1.00;;;;;;6186865;28;20742;-54
2022/11/27 04:07:49;;;;;;;22.23;16.83;;;6.90;1.00;;;;;;6205982;28;20264;-54
2022/11/27 04:10:53;;;;;;;23.93;17.00;;;6.90;1.00;;;;;;6221351;28;20257;-53
2022/11/27 04:13:56;;;;;;;25.60;16.60;;;6.90;1.00;;;;;;6213188;28;20281;-53
2022/11/27 04:16:59;;;;;;;29.43;18.60;;;6.90;1.00;;;;;;6210786;28;20235;-54
2022/11/27 04:20:05;;;;;;;25.90;16.33;;;6.90;1.00;;;;;;6189411;28;20258;-53
2022/11/27 04:23:08;;;;;;;26.07;18.03;;;6.80;1.00;;;;;;6189478;28;20745;-53
2022/11/27 04:26:11;;;;;;;28.83;17.70;;;6.70;1.00;;;;;;6193491;28;20232;-54
2022/11/27 04:29:14;;;;;;;28.10;18.77;;;6.50;1.00;;;;;;6189677;28;20710;-55
2022/11/27 04:32:20;;;;;;;24.93;18.27;;;6.60;1.00;;;;;;6184734;28;20239;-53
2022/11/27 04:35:27;;;;;;;25.07;18.60;;;6.50;1.00;;;;;;6210799;28;20235;-57
2022/11/27 04:38:30;;;;;;;25.57;17.80;;;6.50;1.00;;;;;;6223899;28;20239;-55
2022/11/27 04:41:34;;;;;;;26.57;17.43;;;6.50;1.00;;;;;;6211839;28;20260;-53
2022/11/27 04:44:36;;;;;;;34.57;19.70;;;6.50;1.00;;;;;;6207573;28;20239;-52
2022/11/27 04:47:40;;;;;;;26.17;18.33;;;6.30;1.00;;;;;;6216994;28;20747;-53
2022/11/27 04:50:45;;;;;;;24.50;16.67;;;6.30;1.00;;;;;;6211826;28;20258;-53
2022/11/27 04:53:48;;;;;;;30.23;18.37;;;6.20;1.00;;;;;;6222886;28;20233;-54
2022/11/27 04:56:51;;;;;;;27.70;17.67;;;6.00;1.00;;;;;;6232290;28;20242;-53
2022/11/27 04:59:54;;;;;;;23.23;18.17;;;6.10;1.00;;;;;;6228301;28;20242;-53
2022/11/27 05:02:57;;;;;;;27.43;18.87;;;6.00;1.00;;;;;;6229928;28;20238;-53
2022/11/27 05:06:01;;;;;;;21.83;17.73;;;6.10;1.00;;;;;;6230110;28;20314;-55
2022/11/27 05:09:04;;;;;;;30.90;17.00;;;6.00;1.00;;;;;;6231609;28;20235;-54
2022/11/27 05:12:07;;;;;;;30.73;18.40;;;6.00;1.00;;;;;;6239049;28;20245;-54
2022/11/27 05:15:11;;;;;;;27.03;18.43;;;5.80;1.00;;;;;;6237383;28;20246;-54
2022/11/27 05:18:14;;;;;;;32.63;18.93;;;6.10;1.00;;;;;;6234561;28;20748;-53
2022/11/27 05:21:18;;;;;;;24.83;17.40;;;5.70;1.00;;;;;;6236644;28;20616;-53
2022/11/27 05:24:24;;;;;;;25.57;19.10;;;5.60;1.00;;;;;;6235796;28;20240;-53
2022/11/27 05:27:26;;;;;;;30.50;17.70;;;5.60;1.00;;;;;;6233622;28;20251;-54
2022/11/27 05:30:29;;;;;;;29.20;17.70;;;5.50;1.00;;;;;;6236608;28;20234;-53
2022/11/27 05:33:32;;;;;;;27.20;17.53;;;5.70;1.00;;;;;;6234567;28;20253;-54
2022/11/27 05:36:37;;;;;;;22.50;18.10;;;5.20;1.00;;;;;;6232455;28;20935;-55
2022/11/27 05:39:40;;;;;;;23.43;17.83;;;5.30;1.00;;;;;;6242135;28;20231;-54
2022/11/27 05:42:43;;;;;;;25.07;17.40;;;5.40;1.00;;;;;;6211749;28;20234;-51
2022/11/27 05:45:46;;;;;;;24.00;16.93;;;5.20;1.00;;;;;;6227868;28;20230;-53
2022/11/27 05:48:49;;;;;;;23.77;17.17;;;5.20;1.00;;;;;;6238320;28;20239;-53
2022/11/27 05:51:54;;;;;;;30.70;18.60;;;5.00;1.00;;;;;;6237666;28;20230;-53
2022/11/27 05:54:56;;;;;;;29.97;16.57;;;4.90;1.00;;;;;;6243074;28;20609;-53
2022/11/27 05:57:59;;;;;;;25.73;17.77;;;5.20;1.00;;;;;;6240191;28;20245;-54
2022/11/27 06:01:02;;;;;;;23.90;17.30;;;5.10;1.00;;;;;;6237027;28;20394;-53
2022/11/27 06:04:05;;;;;;;24.70;16.67;;;5.00;1.00;;;;;;6236656;28;20250;-53
2022/11/27 06:07:10;;;;;;;23.77;17.23;;;4.90;1.00;;;;;;6242996;28;20265;-53
2022/11/27 06:10:13;;;;;;;22.93;17.13;;;4.90;1.00;;;;;;6238198;28;20238;-54
2022/11/27 06:13:16;;;;;;;24.80;17.57;;;5.00;1.00;;;;;;6240627;28;20241;-54
2022/11/27 06:16:21;;;;;;;30.80;17.97;;;4.90;1.00;;;;;;6230215;28;20803;-53
2022/11/27 06:19:24;;;;;;;22.03;17.63;;;5.00;1.00;;;;;;6235572;28;20230;-53
2022/11/27 06:22:30;;;;;;;24.83;17.30;;;4.80;1.00;;;;;;6229339;28;20265;-54
2022/11/27 06:25:33;;;;;;;29.57;18.67;;;4.90;1.00;;;;;;6233664;28;20731;-54
2022/11/27 06:28:36;;;;;;;24.63;17.80;;;4.90;1.00;;;;;;6232711;28;20241;-53
2022/11/27 06:31:39;;;;;;;34.33;19.93;;;4.70;1.00;;;;;;6237528;28;20231;-54
2022/11/27 06:34:43;;;;;;;24.37;18.40;;;4.80;1.00;;;;;;6244389;28;20254;-54
2022/11/27 06:37:48;;;;;;;21.77;17.43;;;4.70;1.00;;;;;;6241895;28;21076;-53
2022/11/27 06:40:51;;;;;;;23.43;17.80;;;4.70;1.00;;;;;;6239315;28;20239;-53
2022/11/27 06:43:55;;;;;;;26.40;18.13;;;4.60;1.00;;;;;;6242066;28;20245;-53
2022/11/27 06:46:57;;;;;;;22.17;16.73;;;4.90;1.00;;;;;;6233980;28;20238;-53
2022/11/27 06:50:00;;;;;;;28.50;20.43;;;4.50;1.00;;;;;;6232321;28;20231;-53
2022/11/27 06:53:05;;;;;;;26.93;19.40;;;4.40;1.00;;;;;;6220138;28;20235;-53
2022/11/27 06:56:10;;;;;;;32.93;19.07;;;4.40;1.00;;;;;;6217493;28;20250;-53
2022/11/27 06:59:14;;;;;;;28.43;18.30;;;4.40;1.00;;;;;;6212013;28;20239;-55
2022/11/27 07:02:17;;;;;;;25.53;19.33;;;4.50;1.00;;;;;;6210223;28;20467;-54
2022/11/27 07:05:20;;;;;;;29.43;19.40;;;4.60;1.00;;;;;;6206714;28;20310;-54
2022/11/27 07:08:24;;;;;;;32.23;19.23;;;4.40;1.00;;;;;;6209303;28;20912;-54
2022/11/27 07:11:30;;;;;;;24.07;18.93;;;4.40;1.00;;;;;;6214101;28;20231;-54
2022/11/27 07:14:33;;;;;;;25.07;18.03;;;4.50;1.00;;;;;;6210602;28;20482;-54
2022/11/27 07:17:36;;;;;;;33.93;19.43;;;4.50;1.00;;;;;;6208403;28;20242;-54
2022/11/27 07:20:39;;;;;;;26.37;18.80;;;4.50;1.00;;;;;;6209145;28;20238;-54
2022/11/27 07:23:44;;;;;;;31.03;18.10;;;4.70;1.00;;;;;;6203217;28;20473;-55
2022/11/27 07:26:47;;;;;;;28.23;19.30;;;4.60;1.00;;;;;;6209485;28;20270;-54
2022/11/27 07:29:50;;;;;;;27.47;18.23;;;4.80;1.00;;;;;;6210325;28;20251;-54
2022/11/27 07:32:53;;;;;;;30.90;23.17;;;4.60;1.00;;;;;;6202545;28;20626;-54
2022/11/27 07:35:59;;;;;;;30.07;19.97;;;4.60;1.00;;;;;;6210056;28;20241;-54
2022/11/27 07:39:03;;;;;;;28.30;19.07;;;4.80;1.00;;;;;;6211299;28;20243;-55
2022/11/27 07:42:06;;;;;;;26.73;18.83;;;4.90;1.00;;;;;;6208453;28;20242;-54
2022/11/27 07:45:29;;;;;;;19.93;17.80;;;4.60;1.00;;;;;;6207106;28;20635;-54
2022/11/27 07:48:34;;;;;;;27.23;18.93;;;4.60;1.00;;;;;;6215935;28;20231;-55
2022/11/27 07:51:36;;;;;;;28.30;20.10;;;4.70;1.00;;;;;;6213645;28;20914;-54
2022/11/27 07:54:43;;;;;;;31.43;19.07;;;4.90;1.00;;;;;;6208129;28;20238;-54
2022/11/27 07:57:46;;;;;;;29.07;19.97;;;4.70;1.00;;;;;;6217445;28;20235;-54
2022/11/27 08:00:49;;;;;;;22.10;16.67;;;4.50;1.00;;;;;;6212774;28;20728;-55
2022/11/27 08:03:52;;;;;;;21.97;17.43;;;4.70;1.00;;;;;;6211842;28;20363;-54
2022/11/27 08:06:56;;;;;;;25.03;18.93;;;4.90;1.00;;;;;;6218822;28;20232;-53
2022/11/27 08:10:00;;;;;;;21.80;17.50;;;4.70;1.00;;;;;;6212377;28;20390;-54
2022/11/27 08:13:04;;;;;;;21.57;16.87;;;4.60;1.00;;;;;;6216930;28;20615;-54
2022/11/27 08:16:08;;;;;;;24.93;16.60;;;5.00;1.00;;;;;;6217323;28;20231;-55
2022/11/27 08:19:11;;;;;;;25.70;17.50;;;5.10;1.00;;;;;;6235118;28;20285;-54
2022/11/27 08:22:15;;;;;;;21.93;16.67;;;4.80;1.00;;;;;;6248541;28;20238;-54
2022/11/27 08:25:19;;;;;;;27.33;18.57;;;5.20;1.00;;;;;;6242727;28;20808;-55
2022/11/27 08:28:22;;;;;;;28.60;18.33;;;5.20;1.00;;;;;;6247978;28;20246;-53
2022/11/27 08:31:25;;;;;;;20.30;16.73;;;5.10;1.00;;;;;;6248142;28;20731;-54
2022/11/27 08:34:28;;;;;;;25.23;18.60;;;5.30;1.00;;;;;;6236117;28;20230;-53
2022/11/27 08:37:32;;;;;;;25.77;17.40;;;5.10;1.00;;;;;;6236639;28;20235;-55
2022/11/27 08:40:37;;;;;;;22.83;16.73;;;5.40;1.00;;;;;;6240412;28;20791;-54
2022/11/27 08:43:40;;;;;;;21.63;17.57;;;5.40;1.00;;;;;;6246445;28;20627;-53
2022/11/27 08:46:43;;;;;;;22.97;16.80;;;5.40;1.00;;;;;;6254139;28;20226;-54
2022/11/27 08:49:46;;;;;;;25.87;17.00;;;5.70;1.00;;;;;;6236846;28;20245;-54
2022/11/27 08:52:49;;;;;;;24.90;18.90;;;5.90;1.00;;;;;;6238599;28;20245;-54
2022/11/27 08:55:53;;;;;;;25.67;18.10;;;5.60;1.00;;;;;;6238184;28;20755;-54
2022/11/27 08:58:57;;;;;;;22.87;17.90;;;5.70;1.00;;;;;;6239719;28;20230;-53
2022/11/27 09:02:00;;;;;;;25.97;17.13;;;5.80;1.00;;;;;;6231010;28;20231;-53
2022/11/27 09:05:05;;;;;;;23.03;16.90;;;5.90;1.00;;;;;;6233622;28;20242;-54
2022/11/27 09:08:08;;;;;;;19.00;16.10;;;5.90;1.00;;;;;;6210549;28;20397;-52
2022/11/27 09:11:15;;;;;;;18.20;16.17;;;6.00;1.00;;;;;;6216373;28;20539;-52
2022/11/27 09:14:18;;;;;;;19.70;15.93;;;6.10;1.00;;;;;;6210008;28;20251;-55
2022/11/27 09:17:21;;;;;;;18.23;14.83;;;6.20;1.00;;;;;;6205162;28;20636;-55
2022/11/27 09:20:24;;;;;;;20.60;15.47;;;6.30;1.00;;;;;;6205594;28;20375;-54
2022/11/27 09:23:27;;;;;;;16.67;14.97;;;6.50;1.00;;;;;;6203073;28;20249;-54
2022/11/27 09:26:31;;;;;;;16.77;14.27;;;6.50;1.00;;;;;;6200321;28;20228;-55
2022/11/27 09:29:34;;;;;;;16.87;15.10;;;6.50;1.00;;;;;;6203977;28;20243;-54
2022/11/27 09:32:37;;;;;;;19.30;14.43;;;6.60;1.00;;;;;;6204963;28;20617;-53
2022/11/27 09:35:40;;;;;;;15.63;14.03;;;6.60;1.00;;;;;;6206699;28;20243;-55
2022/11/27 09:38:44;;;;;;;20.27;15.33;;;6.70;1.00;;;;;;6206514;28;20281;-54
2022/11/27 09:41:51;;;;;;;18.63;15.97;;;6.60;1.00;;;;;;6212923;28;20250;-53
2022/11/27 09:44:59;;;;;;;17.87;15.73;;;6.60;1.00;;;;;;6226429;28;20246;-54
2022/11/27 09:48:05;;;;;;;16.53;14.63;;;6.70;1.00;;;;;;6202697;28;20244;-54
2022/11/27 09:51:18;;;;;;;19.67;14.90;;;6.80;1.00;;;;;;6228621;28;20242;-53
2022/11/27 09:54:25;;;;;;;22.20;14.90;;;6.80;1.00;;;;;;6240368;28;20227;-54
2022/11/27 09:57:33;;;;;;;18.83;14.63;;;7.00;1.00;;;;;;6234378;28;20242;-54
2022/11/27 10:00:35;;;;;;;19.70;14.20;;;7.20;1.00;;;;;;6228917;28;20399;-53
2022/11/27 10:03:41;;;;;;;16.10;13.73;;;7.10;1.00;;;;;;6237267;28;20260;-54
2022/11/27 10:07:00;;;;;;;19.20;14.30;;;7.10;1.00;;;;;;6236386;28;20437;-53
2022/11/27 10:10:22;;;;;;;19.07;15.00;;;7.30;1.00;;;;;;6241480;28;20774;-54
2022/11/27 10:13:45;;;;;;;16.37;14.13;;;7.20;1.00;;;;;;6229512;28;20717;-54
2022/11/27 10:16:52;;;;;;;16.37;13.70;;;7.20;1.00;;;;;;6232718;28;20250;-53
2022/11/27 10:20:03;;;;;;;15.33;13.73;;;7.30;1.00;;;;;;6235158;28;20239;-54
2022/11/27 10:23:15;;;;;;;15.70;14.00;;;7.40;1.00;;;;;;6235988;28;20246;-53
2022/11/27 10:26:20;;;;;;;18.63;15.10;;;7.40;1.00;;;;;;6240406;28;20238;-53
2022/11/27 10:29:35;;;;;;;18.87;14.63;;;7.50;1.00;;;;;;6235275;28;20720;-55
2022/11/27 10:32:38;;;;;;;20.00;14.67;;;7.70;1.00;;;;;;6243960;28;20704;-54
2022/11/27 10:36:00;;;;;;;14.40;12.93;;;7.90;1.00;;;;;;6228680;28;20274;-54
2022/11/27 10:39:06;;;;;;;19.70;13.97;;;7.90;1.00;;;;;;6245455;28;20234;-54
2022/11/27 10:42:12;;;;;;;15.20;13.47;;;7.90;1.00;;;;;;6240677;28;20411;-54
2022/11/27 10:45:24;;;;;;;14.53;12.87;;;7.80;1.00;;;;;;6243693;28;20238;-54
2022/11/27 10:48:28;;;;;;;15.30;13.47;;;7.90;1.00;;;;;;6220285;28;20235;-54
2022/11/27 10:51:35;;;;;;;14.40;12.90;;;8.10;1.00;;;;;;6223848;28;20242;-55
2022/11/27 10:54:39;;;;;;;15.10;13.50;;;8.10;1.00;;;;;;6214736;28;20725;-54
2022/11/27 10:57:53;;;;;;;16.53;13.90;;;8.30;1.00;;;;;;6221756;28;20239;-53
2022/11/27 11:01:06;;;;;;;14.73;13.07;;;8.30;1.00;;;;;;6227423;28;20226;-53
2022/11/27 11:04:11;;;;;;;13.97;12.67;;;8.40;1.00;;;;;;6214984;28;20365;-55
2022/11/27 11:07:34;;;;;;;15.37;13.60;;;8.30;1.00;;;;;;6218503;28;20717;-54
2022/11/27 11:10:43;;;;;;;17.27;12.57;;;8.30;1.00;;;;;;6215265;28;20616;-54
2022/11/27 11:13:47;;;;;;;17.20;13.87;;;8.40;1.00;;;;;;6217084;28;20635;-54
2022/11/27 11:16:53;;;;;;;15.80;12.23;;;8.30;1.00;;;;;;6213477;28;20242;-54
2022/11/27 11:19:56;;;;;;;13.57;12.23;;;8.30;1.00;;;;;;6211027;28;20620;-60
2022/11/27 11:22:59;;;;;;;15.83;13.33;;;8.30;1.00;;;;;;6208087;28;20290;-57
2022/11/27 11:26:06;;;;;;;16.17;13.73;;;8.40;1.00;;;;;;6227536;28;20742;-53
2022/11/27 11:29:25;;;;;;;14.37;12.70;;;8.30;1.00;;;;;;6209183;28;20235;-54
2022/11/27 11:32:32;;;;;;;18.47;13.43;;;8.20;1.00;;;;;;6209402;28;20233;-54
2022/11/27 11:35:36;;;;;;;18.57;14.00;;;8.10;1.00;;;;;;6202396;28;20239;-53
2022/11/27 11:38:44;;;;;;;16.63;14.00;;;8.00;1.00;;;;;;6208231;28;20886;-53
2022/11/27 11:41:47;;;;;;;15.73;12.83;;;8.00;1.00;;;;;;6202266;28;20239;-54
2022/11/27 11:44:52;;;;;;;17.70;12.73;;;8.10;1.00;;;;;;6210583;28;20632;-53
2022/11/27 11:47:58;;;;;;;15.10;13.63;;;8.20;1.00;;;;;;6211747;28;20250;-56
2022/11/27 11:51:05;;;;;;;17.50;13.73;;;8.20;1.00;;;;;;6191838;28;20255;-56
2022/11/27 11:54:18;;;;;;;17.90;13.33;;;8.30;1.00;;;;;;6209560;28;20733;-53
2022/11/27 11:57:50;;;;;;;13.93;12.70;;;8.50;1.00;;;;;;6208401;28;20250;-55
2022/11/27 12:01:00;;;;;;;13.87;12.20;;;8.40;1.00;;;;;;6212319;28;20447;-54
2022/11/27 12:04:41;;;;;;;14.27;12.67;;;8.30;1.00;;;;;;6206438;28;20745;-53
2022/11/27 12:07:57;;;;;;;13.70;12.37;;;8.40;1.00;;;;;;6204611;28;20467;-53
2022/11/27 12:11:08;;;;;;;13.83;12.50;;;8.40;1.00;;;;;;6203029;28;20236;-55
2022/11/27 12:14:21;;;;;;;13.30;11.50;;;8.40;1.00;;;;;;6209875;28;20251;-54
2022/11/27 12:17:39;;;;;;;15.20;12.87;;;8.50;1.00;;;;;;6243511;28;20597;-54
2022/11/27 12:20:55;;;;;;;16.77;13.23;;;8.60;1.00;;;;;;6231294;28;20247;-53
2022/11/27 12:24:12;;;;;;;14.50;12.03;;;8.60;1.00;;;;;;6222493;28;20238;-54
2022/11/27 12:27:27;;;;;;;17.07;12.60;;;8.50;1.00;;;;;;6210002;28;20266;-53
2022/11/27 12:30:40;;;;;;;14.53;12.30;;;8.20;1.00;;;;;;6208896;28;20235;-53
2022/11/27 12:33:58;;;;;;;15.10;12.30;;;8.00;1.00;;;;;;6213664;28;20242;-54
2022/11/27 12:37:19;;;;;;;17.57;12.60;;;7.80;1.00;;;;;;6203202;28;20256;-56
2022/11/27 12:40:32;;;;;;;15.50;12.63;;;7.80;1.00;;;;;;6222691;28;20235;-55
2022/11/27 12:43:39;;;;;;;16.17;13.23;;;7.60;1.00;;;;;;6241536;28;20241;-54
2022/11/27 12:46:49;;;;;;;19.57;13.17;;;7.60;1.00;;;;;;6236253;28;20733;-53
2022/11/27 12:49:56;;;;;;;15.23;13.07;;;7.60;1.00;;;;;;6235398;28;20231;-55
2022/11/27 12:53:13;;;;;;;19.80;13.83;;;7.60;1.00;;;;;;6244109;28;20230;-54
2022/11/27 12:56:24;;;;;;;15.20;13.60;;;7.70;1.00;;;;;;6229740;28;20397;-54
2022/11/27 12:59:32;;;;;;;15.23;12.60;;;7.60;1.00;;;;;;6236817;28;20234;-55
2022/11/27 13:02:38;;;;;;;15.17;11.47;;;7.80;1.00;;;;;;6231262;28;20238;-55
2022/11/27 13:05:47;;;;;;;16.17;12.63;;;7.90;1.00;;;;;;6236416;28;20233;-54
2022/11/27 13:08:57;;;;;;;14.07;11.70;;;7.90;1.00;;;;;;6236224;28;20231;-55
2022/11/27 13:12:01;;;;;;;12.60;11.30;;;7.90;1.00;;;;;;6239346;28;20636;-55
2022/11/27 13:15:14;;;;;;;15.97;12.20;;;7.90;1.00;;;;;;6246113;28;20515;-54
2022/11/27 13:18:21;;;;;;;16.30;12.27;;;7.90;1.00;;;;;;6249250;28;20238;-54
2022/11/27 13:21:28;;;;;;;13.97;11.77;;;7.90;1.00;;;;;;6237875;28;20531;-54
2022/11/27 13:24:33;;;;;;;13.40;12.00;;;7.90;1.00;;;;;;6249146;28;20235;-54
2022/11/27 13:27:38;;;;;;;14.67;12.60;;;7.90;1.00;;;;;;6242816;28;20265;-55
2022/11/27 13:30:41;;;;;;;13.30;11.13;;;7.80;1.00;;;;;;6230887;28;20242;-54
2022/11/27 13:33:46;;;;;;;13.90;11.27;;;7.90;1.00;;;;;;6211714;28;20235;-54
2022/11/27 13:36:57;;;;;;;17.43;12.03;;;7.80;1.00;;;;;;6216074;28;20254;-55
2022/11/27 13:40:05;;;;;;;11.87;10.67;;;7.80;1.00;;;;;;6215856;28;20605;-54
2022/11/27 13:43:21;;;;;;;12.53;11.40;;;7.70;1.00;;;;;;6218569;28;20246;-54
2022/11/27 13:46:27;;;;;;;13.03;10.67;;;7.80;1.00;;;;;;6224477;28;20612;-56
2022/11/27 13:49:32;;;;;;;13.83;11.30;;;7.70;1.00;;;;;;6240476;28;20227;-54
2022/11/27 13:52:35;;;;;;;12.87;10.50;;;7.70;1.00;;;;;;6238460;28;20231;-54
2022/11/27 13:55:52;;;;;;;14.83;11.63;;;7.60;1.00;;;;;;6242528;28;20231;-54
2022/11/27 13:58:55;;;;;;;14.73;10.87;;;7.60;1.00;;;;;;6238594;28;20253;-55
2022/11/27 14:01:59;;;;;;;16.17;11.93;;;7.50;1.00;;;;;;6235927;28;20246;-55
2022/11/27 14:05:03;;;;;;;11.63;10.43;;;7.50;1.00;;;;;;6234712;28;20237;-54
2022/11/27 14:08:18;;;;;;;13.23;11.33;;;7.60;1.00;;;;;;6238044;28;20242;-51
2022/11/27 14:11:33;;;;;;;12.07;10.83;;;7.40;1.00;;;;;;6242819;28;20470;-54
2022/11/27 14:14:37;;;;;;;11.23;10.17;;;7.40;1.00;;;;;;6245226;28;20241;-57
2022/11/27 14:17:42;;;;;;;17.43;11.50;;;7.30;1.00;;;;;;6239419;28;20419;-60
2022/11/27 14:20:48;;;;;;;12.50;10.90;;;7.30;1.00;;;;;;6235153;28;20237;-54
2022/11/27 14:23:53;;;;;;;13.50;11.43;;;7.20;1.00;;;;;;6232562;28;20230;-55
2022/11/27 14:26:57;;;;;;;15.07;11.43;;;7.10;1.00;;;;;;6244893;28;20230;-55
2022/11/27 14:30:14;;;;;;;13.53;12.13;;;7.20;1.00;;;;;;6234943;28;20261;-54
2022/11/27 14:33:19;;;;;;;13.87;11.23;;;7.00;1.00;;;;;;6227724;28;20702;-55
2022/11/27 14:36:25;;;;;;;12.97;11.60;;;7.00;1.00;;;;;;6227903;28;20612;-54
2022/11/27 14:39:30;;;;;;;13.97;12.13;;;7.00;1.00;;;;;;6221699;28;20711;-54
2022/11/27 14:42:34;;;;;;;12.57;11.33;;;6.90;1.00;;;;;;6239552;28;20646;-54
2022/11/27 14:45:48;;;;;;;11.80;10.63;;;6.90;1.00;;;;;;6239991;28;20507;-54
2022/11/27 14:48:54;;;;;;;12.63;11.53;;;7.00;1.00;;;;;;6241235;28;20238;-54
2022/11/27 14:52:01;;;;;;;12.97;11.67;;;6.80;1.00;;;;;;6238893;28;20275;-55
2022/11/27 14:55:08;;;;;;;14.90;11.93;;;6.80;1.00;;;;;;6234013;28;20257;-55
2022/11/27 14:58:19;;;;;;;11.67;10.47;;;6.90;1.00;;;;;;6241698;28;20473;-54
2022/11/27 15:01:25;;;;;;;14.57;12.10;;;6.70;1.00;;;;;;6231179;28;20242;-54
2022/11/27 15:04:35;;;;;;;20.00;12.00;;;6.70;1.00;;;;;;6228804;28;20234;-54
2022/11/27 15:07:38;;;;;;;15.00;11.97;;;6.60;1.00;;;;;;6230702;28;20245;-56
2022/11/27 15:10:54;;;;;;;16.83;11.60;;;6.60;1.00;;;;;;6200744;28;20242;-54
2022/11/27 15:14:02;;;;;;;12.30;10.70;;;6.50;1.00;;;;;;6211346;28;20858;-54
2022/11/27 15:17:05;;;;;;;13.80;10.90;;;6.50;1.00;;;;;;6230731;28;20235;-55
2022/11/27 15:20:15;;;;;;;13.90;11.43;;;6.50;1.00;;;;;;6242875;28;20230;-53
2022/11/27 15:23:21;;;;;;;13.17;11.57;;;6.50;1.00;;;;;;6242977;28;20713;-54
2022/11/27 15:26:33;;;;;;;13.57;11.27;;;6.50;1.00;;;;;;6239513;28;20366;-55
2022/11/27 15:29:38;;;;;;;13.63;12.03;;;6.50;1.00;;;;;;6244467;28;20230;-53
2022/11/27 15:32:50;;;;;;;12.20;11.00;;;6.40;1.00;;;;;;6242345;28;20233;-53
2022/11/27 15:35:54;;;;;;;15.63;11.80;;;6.50;1.00;;;;;;6231599;28;20230;-55
2022/11/27 15:39:13;;;;;;;13.97;11.60;;;6.40;1.00;;;;;;6235383;28;20240;-54
2022/11/27 15:42:17;;;;;;;11.90;10.70;;;6.30;1.00;;;;;;6208996;28;20238;-52
2022/11/27 15:45:22;;;;;;;11.93;10.73;;;6.30;1.00;;;;;;6219740;28;20235;-55
2022/11/27 15:48:25;;;;;;;13.03;10.97;;;6.40;1.00;;;;;;6209018;28;21032;-54
2022/11/27 15:51:29;;;;;;;12.30;11.13;;;6.20;1.00;;;;;;6215635;28;20242;-55
2022/11/27 15:54:31;;;;;;;11.97;10.80;;;6.20;1.00;;;;;;6213501;28;20243;-55
2022/11/27 15:57:34;;;;;;;13.97;10.80;;;6.10;1.00;;;;;;6204643;28;20270;-53
2022/11/27 16:00:39;;;;;;;13.80;11.10;;;6.10;1.00;;;;;;6210475;28;20227;-54
2022/11/27 16:03:42;;;;;;;12.07;10.80;;;6.30;1.00;;;;;;6209626;28;20274;-55
2022/11/27 16:06:45;;;;;;;12.93;9.97;;;6.30;1.00;;;;;;6214056;28;20267;-55
2022/11/27 16:09:48;;;;;;;11.37;10.20;;;6.10;1.00;;;;;;6211068;28;20614;-54
2022/11/27 16:12:53;;;;;;;15.20;11.37;;;6.10;1.00;;;;;;6218620;28;20396;-55